Terminal Aerodrome Forecast
Issued by NWS

Home | Current Version | Previous Version | Text Only | Print | Product List | Glossary On
Versions: 1 2 3 4 5 6 7 8 9 10 11 12 13 14 15 16 17 18
000
FTUS46 KSGX 051722
TAFCRQ
TAF
KCRQ 051722Z 0518/0618 VRB04KT 5SM BR OVC012
     FM052000 25009KT P6SM BKN015
      TEMPO 0520/0524 SCT015
     FM060100 VRB04KT P6SM OVC012
     FM061200 VRB04KT 4SM -DZ BR OVC009
     FM061600 VRB04KT P6SM OVC012=

USA.gov is the U.S. government's official web portal to all federal, state and local government web resources and services.